Time;durP1;ratioP1;P1;durP2;ratioP2;P2;SDS_P1;SDS_P2;PMS_P1;PMS_P2;Temp;Humidity;BMP_temperature;BMP_pressure;BME280_temperature;BME280_humidity;BME280_pressure;Samples;Min_cycle;Max_cycle;Signal;HPM_P1;HPM_P2
2021/01/12 00:01:51;;;;;;;;;;;6.30;99.90;;;;;;5172071;27;19955;-86
2021/01/12 00:04:27;;;;;;;;;;;6.30;99.90;;;;;;5155072;27;19951;-86
2021/01/12 00:06:58;;;;;;;;;;;6.30;99.90;;;;;;5155121;27;20352;-87
2021/01/12 00:09:27;;;;;;;;;;;6.30;99.90;;;;;;5151441;27;19914;-87
2021/01/12 00:11:56;;;;;;;;;;;6.40;99.90;;;;;;5170418;27;19936;-86
2021/01/12 00:14:34;;;;;;;;;;;6.40;99.90;;;;;;5152409;27;19915;-86
2021/01/12 00:17:11;;;;;;;;;;;6.40;99.90;;;;;;5152422;27;19911;-86
2021/01/12 00:19:42;;;;;;;;;;;6.50;99.90;;;;;;5154638;27;19913;-86
2021/01/12 00:22:17;;;;;;;;;;;6.50;99.90;;;;;;5154593;27;19979;-86
2021/01/12 00:24:50;;;;;;;;;;;6.50;99.90;;;;;;5155057;27;20347;-86
2021/01/12 00:27:22;;;;;;;;;;;6.50;99.90;;;;;;5154815;27;20005;-86
2021/01/12 00:29:56;;;;;;;;;;;6.50;99.90;;;;;;5154881;27;19911;-86
2021/01/12 00:32:27;;;;;;;;;;;6.60;99.90;;;;;;5154529;27;20317;-86
2021/01/12 00:34:53;;;;;;;;;;;6.60;99.90;;;;;;5151165;27;20373;-86
2021/01/12 00:37:24;;;;;;;;;;;6.60;99.90;;;;;;5152713;27;19908;-86
2021/01/12 00:40:01;;;;;;;;;;;6.60;99.90;;;;;;5160133;27;19907;-85
2021/01/12 00:42:31;;;;;;;;;;;6.60;99.90;;;;;;5152495;27;19907;-87
2021/01/12 00:45:00;;;;;;;;;;;6.60;99.90;;;;;;5151164;27;20290;-86
2021/01/12 00:47:32;;;;;;;;;;;6.60;99.90;;;;;;5138178;27;19947;-86
2021/01/12 00:50:01;;;;;;;;;;;6.60;99.90;;;;;;5136604;27;19919;-86
2021/01/12 00:52:32;;;;;;;;;;;6.60;99.90;;;;;;5132284;27;19908;-85
2021/01/12 00:55:00;;;;;;;;;;;6.60;99.90;;;;;;5138236;27;19930;-86
2021/01/12 00:57:31;;;;;;;;;;;6.60;99.90;;;;;;5136861;27;20002;-86
2021/01/12 01:00:02;;;;;;;;;;;6.60;99.90;;;;;;5136906;27;19916;-86
2021/01/12 01:02:33;;;;;;;;;;;6.60;99.90;;;;;;5132487;27;19961;-86
2021/01/12 01:05:10;;;;;;;;;;;6.60;99.90;;;;;;5137533;27;19922;-86
2021/01/12 01:07:38;;;;;;;;;;;6.60;99.90;;;;;;5136887;27;19908;-86
2021/01/12 01:10:12;;;;;;;;;;;6.60;99.90;;;;;;5132181;27;20108;-86
2021/01/12 01:12:46;;;;;;;;;;;6.60;99.90;;;;;;5137420;27;19934;-86
2021/01/12 01:15:15;;;;;;;;;;;6.60;99.90;;;;;;5136506;27;19919;-86
2021/01/12 01:17:43;;;;;;;;;;;6.60;99.90;;;;;;5136307;27;19998;-86
2021/01/12 01:20:13;;;;;;;;;;;6.60;99.90;;;;;;5137415;27;19942;-86
2021/01/12 01:23:00;;;;;;;;;;;6.60;99.90;;;;;;5136374;27;19972;-86
2021/01/12 01:25:33;;;;;;;;;;;6.60;99.90;;;;;;5135930;27;20279;-86
2021/01/12 01:28:07;;;;;;;;;;;6.60;99.90;;;;;;5135214;27;20344;-87
2021/01/12 01:30:38;;;;;;;;;;;6.60;99.90;;;;;;5137059;27;19908;-86
2021/01/12 01:33:09;;;;;;;;;;;6.60;99.90;;;;;;5136114;27;19965;-85
2021/01/12 01:35:39;;;;;;;;;;;6.60;99.90;;;;;;5135910;27;19923;-87
2021/01/12 01:38:17;;;;;;;;;;;6.60;99.90;;;;;;5135733;27;19911;-88
2021/01/12 01:41:10;;;;;;;;;;;6.60;99.90;;;;;;5136763;27;19962;-86
2021/01/12 01:43:44;;;;;;;;;;;6.60;99.90;;;;;;5136713;27;20416;-87
2021/01/12 01:46:33;;;;;;;;;;;6.60;99.90;;;;;;5136911;27;20272;-89
2021/01/12 01:49:31;;;;;;;;;;;6.60;99.90;;;;;;5137373;27;19907;-87
2021/01/12 01:52:03;;;;;;;;;;;6.60;99.90;;;;;;5137096;27;19912;-87
2021/01/12 01:54:32;;;;;;;;;;;6.60;99.90;;;;;;5136212;27;19926;-87
2021/01/12 01:57:02;;;;;;;;;;;6.60;99.90;;;;;;5136386;27;20035;-87
2021/01/12 01:59:27;;;;;;;;;;;6.60;99.90;;;;;;5136153;27;19912;-87
2021/01/12 02:02:01;;;;;;;;;;;6.60;99.90;;;;;;5135986;27;19930;-87
2021/01/12 02:04:36;;;;;;;;;;;6.60;99.90;;;;;;5132525;27;19908;-87
2021/01/12 02:07:03;;;;;;;;;;;6.60;99.90;;;;;;5135506;27;20340;-87
2021/01/12 02:09:47;;;;;;;;;;;6.60;99.90;;;;;;5136646;27;19998;-88
2021/01/12 02:12:21;;;;;;;;;;;6.60;99.90;;;;;;5135645;27;20341;-88
2021/01/12 02:14:56;;;;;;;;;;;6.60;99.90;;;;;;5134308;27;19919;-88
2021/01/12 02:17:32;;;;;;;;;;;6.70;99.90;;;;;;5135394;27;19907;-87
2021/01/12 02:20:03;;;;;;;;;;;6.70;99.90;;;;;;5136334;27;19922;-88
2021/01/12 02:22:37;;;;;;;;;;;6.70;99.90;;;;;;5117208;27;19907;-88
2021/01/12 02:25:06;;;;;;;;;;;6.70;99.90;;;;;;5117030;27;19915;-87
2021/01/12 02:27:35;;;;;;;;;;;6.70;99.90;;;;;;5116773;27;19918;-87
2021/01/12 02:30:23;;;;;;;;;;;6.70;99.90;;;;;;5133018;27;19912;-88
2021/01/12 02:32:54;;;;;;;;;;;6.70;99.90;;;;;;5116688;27;19936;-88
2021/01/12 02:35:26;;;;;;;;;;;6.70;99.90;;;;;;5133742;27;20002;-88
2021/01/12 02:37:55;;;;;;;;;;;6.80;99.90;;;;;;5131256;27;19915;-88
2021/01/12 02:40:35;;;;;;;;;;;6.80;99.90;;;;;;5116749;27;19947;-88
2021/01/12 02:43:04;;;;;;;;;;;6.80;99.90;;;;;;5114988;27;20356;-88
2021/01/12 02:45:38;;;;;;;;;;;6.80;99.90;;;;;;5116891;27;19907;-88
2021/01/12 02:48:09;;;;;;;;;;;6.80;99.90;;;;;;5133888;27;20003;-88
2021/01/12 02:50:39;;;;;;;;;;;6.90;99.90;;;;;;5114302;27;19914;-87
2021/01/12 02:53:11;;;;;;;;;;;6.90;99.90;;;;;;5133511;27;19915;-87
2021/01/12 02:55:42;;;;;;;;;;;6.90;99.90;;;;;;5133607;27;19916;-86
2021/01/12 02:58:17;;;;;;;;;;;6.90;99.90;;;;;;5130339;27;19919;-88
2021/01/12 03:00:49;;;;;;;;;;;7.00;99.90;;;;;;5135187;27;19911;-88
2021/01/12 03:03:28;;;;;;;;;;;7.00;99.90;;;;;;5130186;27;19908;-86
2021/01/12 03:05:53;;;;;;;;;;;7.00;99.90;;;;;;5135069;27;19912;-85
2021/01/12 03:08:28;;;;;;;;;;;7.00;99.90;;;;;;5135645;27;19953;-85
2021/01/12 03:11:04;;;;;;;;;;;7.10;99.90;;;;;;5134694;27;19908;-86
2021/01/12 03:13:32;;;;;;;;;;;7.00;99.90;;;;;;5134643;27;19907;-86
2021/01/12 03:16:02;;;;;;;;;;;7.10;99.90;;;;;;5134138;27;20363;-86
2021/01/12 03:18:33;;;;;;;;;;;7.10;99.90;;;;;;5135414;27;19916;-87
2021/01/12 03:21:09;;;;;;;;;;;7.10;99.90;;;;;;5134481;27;20307;-87
2021/01/12 03:23:41;;;;;;;;;;;7.10;99.90;;;;;;5133241;27;19914;-87
2021/01/12 03:26:19;;;;;;;;;;;7.10;99.90;;;;;;5134113;27;19990;-86
2021/01/12 03:28:54;;;;;;;;;;;7.20;99.90;;;;;;5133909;27;20006;-87
2021/01/12 03:31:23;;;;;;;;;;;7.20;99.90;;;;;;5130734;27;19976;-86
2021/01/12 03:33:48;;;;;;;;;;;7.20;99.90;;;;;;5131540;28;19915;-87
2021/01/12 03:36:20;;;;;;;;;;;7.20;99.90;;;;;;5134160;28;19926;-88
2021/01/12 03:38:53;;;;;;;;;;;7.20;99.90;;;;;;5134224;28;20287;-87
2021/01/12 03:41:21;;;;;;;;;;;7.20;99.90;;;;;;5117396;28;19923;-87
2021/01/12 03:43:52;;;;;;;;;;;7.20;99.90;;;;;;5134276;28;20283;-87
2021/01/12 03:46:23;;;;;;;;;;;7.20;99.90;;;;;;5135303;27;19911;-86
2021/01/12 03:48:57;;;;;;;;;;;7.20;99.90;;;;;;5133708;28;19907;-87
2021/01/12 03:51:29;;;;;;;;;;;7.20;99.90;;;;;;5134615;28;19987;-87
2021/01/12 03:53:58;;;;;;;;;;;7.20;99.90;;;;;;5134141;28;19911;-87
2021/01/12 03:56:31;;;;;;;;;;;7.20;99.90;;;;;;5133998;28;19911;-88
2021/01/12 03:59:00;;;;;;;;;;;7.20;99.90;;;;;;5133963;28;19951;-86
2021/01/12 04:01:32;;;;;;;;;;;7.30;99.90;;;;;;5131454;28;20387;-87
2021/01/12 04:03:59;;;;;;;;;;;7.20;99.90;;;;;;5135255;28;19933;-86
2021/01/12 04:06:27;;;;;;;;;;;7.30;99.90;;;;;;5133321;28;19954;-86
2021/01/12 04:09:01;;;;;;;;;;;7.20;99.90;;;;;;5133033;28;20002;-86
2021/01/12 04:11:37;;;;;;;;;;;7.30;99.90;;;;;;5130684;28;19960;-86
2021/01/12 04:14:10;;;;;;;;;;;7.20;99.90;;;;;;5133114;28;19908;-85
2021/01/12 04:16:39;;;;;;;;;;;7.30;99.90;;;;;;5133215;28;19914;-87
2021/01/12 04:19:15;;;;;;;;;;;7.30;99.90;;;;;;5129421;28;19907;-87
2021/01/12 04:22:01;;;;;;;;;;;7.30;99.90;;;;;;5135219;27;20002;-87
2021/01/12 04:24:41;;;;;;;;;;;7.30;99.90;;;;;;5138361;27;19919;-87
2021/01/12 04:27:12;;;;;;;;;;;7.30;99.90;;;;;;5137285;27;19907;-87
2021/01/12 04:29:46;;;;;;;;;;;7.30;99.90;;;;;;5138073;27;19908;-86
2021/01/12 04:32:14;;;;;;;;;;;7.30;99.90;;;;;;5137067;27;20010;-87
2021/01/12 04:34:46;;;;;;;;;;;7.30;99.90;;;;;;5137179;27;19964;-87
2021/01/12 04:37:15;;;;;;;;;;;7.30;99.90;;;;;;5134081;27;19911;-87
2021/01/12 04:39:46;;;;;;;;;;;7.40;99.90;;;;;;5136807;27;20275;-87
2021/01/12 04:42:17;;;;;;;;;;;7.40;99.90;;;;;;5137952;27;19907;-87
2021/01/12 04:44:42;;;;;;;;;;;7.40;99.90;;;;;;5138164;27;19973;-87
2021/01/12 04:47:16;;;;;;;;;;;7.30;99.90;;;;;;5137466;27;20371;-86
2021/01/12 04:49:44;;;;;;;;;;;7.30;99.90;;;;;;5137231;27;19957;-87
2021/01/12 04:52:15;;;;;;;;;;;7.40;99.90;;;;;;5136941;27;20352;-87
2021/01/12 04:54:49;;;;;;;;;;;7.40;99.90;;;;;;5137237;27;19919;-87
2021/01/12 04:57:21;;;;;;;;;;;7.40;99.90;;;;;;5137280;27;19914;-87
2021/01/12 04:59:55;;;;;;;;;;;7.40;99.90;;;;;;5132687;27;19907;-87
2021/01/12 05:02:29;;;;;;;;;;;7.40;99.90;;;;;;5133377;27;19914;-87
2021/01/12 05:04:54;;;;;;;;;;;7.40;99.90;;;;;;5137853;27;19916;-87
2021/01/12 05:07:30;;;;;;;;;;;7.40;99.90;;;;;;5136290;27;19967;-87
2021/01/12 05:10:04;;;;;;;;;;;7.40;99.90;;;;;;5137130;27;19908;-87
2021/01/12 05:12:30;;;;;;;;;;;7.40;99.90;;;;;;5136616;27;19950;-87
2021/01/12 05:14:57;;;;;;;;;;;7.40;99.90;;;;;;5135494;27;19962;-87
2021/01/12 05:17:29;;;;;;;;;;;7.40;99.90;;;;;;5136374;27;20400;-87
2021/01/12 05:20:07;;;;;;;;;;;7.40;99.90;;;;;;5135191;27;20356;-87
2021/01/12 05:22:44;;;;;;;;;;;7.50;99.90;;;;;;5137443;27;19908;-87
2021/01/12 05:25:19;;;;;;;;;;;7.50;99.90;;;;;;5133478;27;19934;-87
2021/01/12 05:27:58;;;;;;;;;;;7.50;99.90;;;;;;5137217;27;19908;-87
2021/01/12 05:30:32;;;;;;;;;;;7.40;99.90;;;;;;5134608;27;19911;-85
2021/01/12 05:33:12;;;;;;;;;;;7.50;99.90;;;;;;5135696;27;19914;-85
2021/01/12 05:35:47;;;;;;;;;;;7.50;99.90;;;;;;5133029;27;19927;-85
2021/01/12 05:38:27;;;;;;;;;;;7.50;99.90;;;;;;5135587;27;19919;-86
2021/01/12 05:41:05;;;;;;;;;;;7.50;99.90;;;;;;5136140;27;19998;-86
2021/01/12 05:43:35;;;;;;;;;;;7.50;99.90;;;;;;5137565;27;20267;-86
2021/01/12 05:46:10;;;;;;;;;;;7.50;99.90;;;;;;5133449;27;19911;-86
2021/01/12 05:48:42;;;;;;;;;;;7.50;99.90;;;;;;5136488;27;20433;-86
2021/01/12 05:51:13;;;;;;;;;;;7.50;99.90;;;;;;5135871;27;19914;-86
2021/01/12 05:53:54;;;;;;;;;;;7.50;99.90;;;;;;5136221;27;19913;-86
2021/01/12 05:56:27;;;;;;;;;;;7.50;99.90;;;;;;5135458;27;19951;-86
2021/01/12 05:59:05;;;;;;;;;;;7.50;99.90;;;;;;5136411;27;19907;-86
2021/01/12 06:01:49;;;;;;;;;;;7.60;99.90;;;;;;5135484;27;19914;-85
2021/01/12 06:04:22;;;;;;;;;;;7.60;99.90;;;;;;5135497;27;19995;-85
2021/01/12 06:06:58;;;;;;;;;;;7.50;99.90;;;;;;5136523;27;19926;-85
2021/01/12 06:10:04;;;;;;;;;;;7.50;99.90;;;;;;5136410;27;19912;-85
2021/01/12 06:12:32;;;;;;;;;;;7.50;99.90;;;;;;5135305;27;19907;-86
2021/01/12 06:15:11;;;;;;;;;;;7.50;99.90;;;;;;5133970;27;19941;-85
2021/01/12 06:17:46;;;;;;;;;;;7.50;99.90;;;;;;5134077;27;19914;-86
2021/01/12 06:20:24;;;;;;;;;;;7.50;99.90;;;;;;5131996;27;19911;-85
2021/01/12 06:22:58;;;;;;;;;;;7.50;99.90;;;;;;5126927;27;19907;-85
2021/01/12 06:25:31;;;;;;;;;;;7.50;99.90;;;;;;5133557;27;20284;-85
2021/01/12 06:28:05;;;;;;;;;;;7.50;99.90;;;;;;5134926;27;19912;-85
2021/01/12 06:30:39;;;;;;;;;;;7.50;99.90;;;;;;5129888;27;20006;-85
2021/01/12 06:33:13;;;;;;;;;;;7.50;99.90;;;;;;5134006;27;19908;-85
2021/01/12 06:35:48;;;;;;;;;;;7.50;99.90;;;;;;5134438;27;19966;-85
2021/01/12 06:38:27;;;;;;;;;;;7.60;99.90;;;;;;5134631;27;20267;-85
2021/01/12 06:41:00;;;;;;;;;;;7.60;99.90;;;;;;5133403;27;19963;-84
2021/01/12 06:43:28;;;;;;;;;;;7.60;99.90;;;;;;5120974;27;19907;-85
2021/01/12 06:46:04;;;;;;;;;;;7.60;99.90;;;;;;5113198;28;19908;-84
2021/01/12 06:48:39;;;;;;;;;;;7.60;99.90;;;;;;5114816;28;19911;-85
2021/01/12 06:51:16;;;;;;;;;;;7.50;99.90;;;;;;5112618;28;19915;-85
2021/01/12 06:53:53;;;;;;;;;;;7.60;99.90;;;;;;5113563;27;19912;-85
2021/01/12 06:56:31;;;;;;;;;;;7.50;99.90;;;;;;5129891;27;20352;-84
2021/01/12 06:59:00;;;;;;;;;;;7.50;99.90;;;;;;5134338;27;19946;-85
2021/01/12 07:01:33;;;;;;;;;;;7.50;99.90;;;;;;5134224;27;20079;-84
2021/01/12 07:04:09;;;;;;;;;;;7.50;99.90;;;;;;5133756;27;20264;-84
2021/01/12 07:06:38;;;;;;;;;;;7.50;99.90;;;;;;5133395;27;19943;-84
2021/01/12 07:09:14;;;;;;;;;;;7.40;99.90;;;;;;5134114;27;19915;-84
2021/01/12 07:11:40;;;;;;;;;;;7.50;99.90;;;;;;5133574;27;19908;-84
2021/01/12 07:14:12;;;;;;;;;;;7.40;99.90;;;;;;5135030;27;19914;-85
2021/01/12 07:16:46;;;;;;;;;;;7.40;99.90;;;;;;5133813;27;19916;-85
2021/01/12 07:19:23;;;;;;;;;;;7.40;99.90;;;;;;5133106;27;19911;-85
2021/01/12 07:21:54;;;;;;;;;;;7.40;99.90;;;;;;5126697;27;19912;-84
2021/01/12 07:24:24;;;;;;;;;;;7.30;99.90;;;;;;5113966;28;20228;-84
2021/01/12 07:27:03;;;;;;;;;;;7.30;99.90;;;;;;5115441;28;19943;-84
2021/01/12 07:29:44;;;;;;;;;;;7.20;99.90;;;;;;5114129;28;19981;-84
2021/01/12 07:32:23;;;;;;;;;;;7.20;99.90;;;;;;5113105;28;19998;-84
2021/01/12 07:34:59;;;;;;;;;;;7.20;99.90;;;;;;5113518;28;19959;-85
2021/01/12 07:37:37;;;;;;;;;;;7.20;99.90;;;;;;5134293;28;20049;-85
2021/01/12 07:40:17;;;;;;;;;;;7.10;99.90;;;;;;5134281;28;19912;-85
2021/01/12 07:43:00;;;;;;;;;;;7.10;99.90;;;;;;5116377;28;19960;-85
2021/01/12 07:45:47;;;;;;;;;;;7.10;99.90;;;;;;5116397;28;19914;-86
2021/01/12 07:48:36;;;;;;;;;;;7.10;99.90;;;;;;5137037;27;20367;-86
2021/01/12 07:51:08;;;;;;;;;;;7.10;99.90;;;;;;5133688;28;19954;-86
2021/01/12 07:53:34;;;;;;;;;;;7.10;99.90;;;;;;5115752;28;20276;-86
2021/01/12 07:56:12;;;;;;;;;;;7.10;99.90;;;;;;5128501;27;19930;-85
2021/01/12 07:58:44;;;;;;;;;;;7.00;99.90;;;;;;5136837;27;20252;-86
2021/01/12 08:01:10;;;;;;;;;;;7.10;99.90;;;;;;5139314;27;20005;-86
2021/01/12 08:03:53;;;;;;;;;;;7.10;99.90;;;;;;5166074;27;19943;-85
2021/01/12 08:06:23;;;;;;;;;;;7.10;99.90;;;;;;5163532;27;19914;-85
2021/01/12 08:08:56;;;;;;;;;;;7.10;99.90;;;;;;5142547;27;20426;-85
2021/01/12 08:11:28;;;;;;;;;;;7.10;99.90;;;;;;5155351;27;19915;-85
2021/01/12 08:14:02;;;;;;;;;;;7.10;99.90;;;;;;5119855;27;19908;-84
2021/01/12 08:16:49;;;;;;;;;;;7.10;99.90;;;;;;5139637;27;19923;-85
2021/01/12 08:19:20;;;;;;;;;;;7.00;99.90;;;;;;5140984;27;20411;-84
2021/01/12 08:21:46;;;;;;;;;;;7.10;99.90;;;;;;5139714;27;20302;-85
2021/01/12 08:24:26;;;;;;;;;;;7.10;99.90;;;;;;5140704;27;19907;-86
2021/01/12 08:26:59;;;;;;;;;;;7.10;99.90;;;;;;5140430;27;19951;-84
2021/01/12 08:29:40;;;;;;;;;;;7.10;99.90;;;;;;5140654;27;19913;-84
2021/01/12 08:32:15;;;;;;;;;;;7.10;99.90;;;;;;5142195;27;19907;-85
2021/01/12 08:35:01;;;;;;;;;;;7.00;99.90;;;;;;5141122;27;20321;-86
2021/01/12 08:37:45;;;;;;;;;;;7.00;99.90;;;;;;5158501;27;19919;-85
2021/01/12 08:40:25;;;;;;;;;;;7.00;99.90;;;;;;5140882;27;19998;-86
2021/01/12 08:43:07;;;;;;;;;;;6.90;99.90;;;;;;5135482;27;19912;-86
2021/01/12 08:45:44;;;;;;;;;;;6.90;99.90;;;;;;5119731;27;20355;-86
2021/01/12 08:48:15;;;;;;;;;;;6.90;99.90;;;;;;5134104;27;20312;-85
2021/01/12 08:50:47;;;;;;;;;;;6.90;99.90;;;;;;5120182;27;19908;-86
2021/01/12 08:53:37;;;;;;;;;;;6.80;99.90;;;;;;5119394;27;19907;-86
2021/01/12 08:56:11;;;;;;;;;;;6.70;99.90;;;;;;5119694;27;19923;-85
2021/01/12 08:58:56;;;;;;;;;;;6.70;99.90;;;;;;5137571;27;19907;-86
2021/01/12 09:01:28;;;;;;;;;;;6.60;99.90;;;;;;5137336;27;19907;-86
2021/01/12 09:04:11;;;;;;;;;;;6.60;99.90;;;;;;5119263;27;19908;-86
2021/01/12 09:06:44;;;;;;;;;;;6.50;99.90;;;;;;5137046;27;19911;-85
2021/01/12 09:09:16;;;;;;;;;;;6.40;99.90;;;;;;5119647;27;20368;-85
2021/01/12 09:11:48;;;;;;;;;;;6.30;99.90;;;;;;5113815;27;19908;-84
2021/01/12 09:14:21;;;;;;;;;;;6.40;99.90;;;;;;5130204;27;19907;-85
2021/01/12 09:17:02;;;;;;;;;;;6.60;99.90;;;;;;5129936;27;19911;-85
2021/01/12 09:19:40;;;;;;;;;;;6.80;99.90;;;;;;5119303;27;19915;-86
2021/01/12 09:22:16;;;;;;;;;;;6.80;99.90;;;;;;5137867;27;19907;-84
2021/01/12 09:24:49;;;;;;;;;;;6.70;99.90;;;;;;5132066;27;20333;-83
2021/01/12 09:27:28;;;;;;;;;;;6.60;99.90;;;;;;5138703;27;19907;-84
2021/01/12 09:29:56;;;;;;;;;;;6.50;99.90;;;;;;5141671;27;19915;-85
2021/01/12 09:32:34;;;;;;;;;;;6.60;99.90;;;;;;5133318;27;19926;-86
2021/01/12 09:35:25;;;;;;;;;;;6.60;99.90;;;;;;5156335;27;19919;-86
2021/01/12 09:37:57;;;;;;;;;;;6.50;99.90;;;;;;5140517;27;20386;-86
2021/01/12 09:40:34;;;;;;;;;;;6.50;99.90;;;;;;5141714;27;20002;-86
2021/01/12 09:43:08;;;;;;;;;;;6.50;99.90;;;;;;5139543;27;19907;-86
2021/01/12 09:45:37;;;;;;;;;;;6.50;99.90;;;;;;5159294;27;19928;-86
2021/01/12 09:48:10;;;;;;;;;;;6.40;99.90;;;;;;5127922;27;19918;-84
2021/01/12 09:50:35;;;;;;;;;;;6.40;99.90;;;;;;5136975;27;19915;-85
2021/01/12 09:53:08;;;;;;;;;;;6.40;99.90;;;;;;5128229;27;19974;-85
2021/01/12 09:55:36;;;;;;;;;;;6.40;99.90;;;;;;5136660;27;20351;-86
2021/01/12 09:58:05;;;;;;;;;;;6.50;99.90;;;;;;5128477;27;19912;-85
2021/01/12 10:00:34;;;;;;;;;;;6.50;99.90;;;;;;5118544;27;19915;-85
2021/01/12 10:03:16;;;;;;;;;;;6.60;99.90;;;;;;5133189;27;19916;-84
2021/01/12 10:05:50;;;;;;;;;;;6.60;99.90;;;;;;5140038;27;19999;-85
2021/01/12 10:08:27;;;;;;;;;;;6.70;99.90;;;;;;5136823;27;19907;-85
2021/01/12 10:10:57;;;;;;;;;;;6.70;99.90;;;;;;5117658;27;19907;-84
2021/01/12 10:13:25;;;;;;;;;;;6.60;99.90;;;;;;5118550;27;19907;-84
2021/01/12 10:16:00;;;;;;;;;;;6.60;99.90;;;;;;5117143;27;20391;-84
2021/01/12 10:18:31;;;;;;;;;;;6.60;99.90;;;;;;5135908;27;19907;-85
2021/01/12 10:21:02;;;;;;;;;;;6.50;99.90;;;;;;5119916;27;19916;-85
2021/01/12 10:23:38;;;;;;;;;;;6.60;99.90;;;;;;5136031;27;20015;-85
2021/01/12 10:26:09;;;;;;;;;;;6.60;99.90;;;;;;5114486;27;20006;-85
2021/01/12 10:28:38;;;;;;;;;;;6.50;99.90;;;;;;5136370;27;19908;-85
2021/01/12 10:31:09;;;;;;;;;;;6.50;99.90;;;;;;5131133;27;19943;-85
2021/01/12 10:33:48;;;;;;;;;;;6.40;99.90;;;;;;5128881;27;20220;-86
2021/01/12 10:36:17;;;;;;;;;;;6.40;99.90;;;;;;5135048;27;19919;-86
2021/01/12 10:38:50;;;;;;;;;;;6.40;99.90;;;;;;5129424;27;20006;-85
2021/01/12 10:41:24;;;;;;;;;;;6.40;99.90;;;;;;5124516;27;21118;-86
2021/01/12 10:43:55;;;;;;;;;;;6.30;99.90;;;;;;5135224;27;19914;-85
2021/01/12 10:46:27;;;;;;;;;;;6.10;99.90;;;;;;5134791;27;19911;-85
2021/01/12 10:48:53;;;;;;;;;;;6.10;99.90;;;;;;5134526;27;20382;-86
2021/01/12 10:51:24;;;;;;;;;;;6.00;99.90;;;;;;5137144;27;19911;-85
2021/01/12 10:53:59;;;;;;;;;;;6.00;99.90;;;;;;5134865;27;19907;-86
2021/01/12 10:56:28;;;;;;;;;;;5.90;99.90;;;;;;5130821;27;19923;-86
2021/01/12 10:59:00;;;;;;;;;;;5.90;99.90;;;;;;5135031;27;20267;-86
2021/01/12 11:01:28;;;;;;;;;;;5.90;99.90;;;;;;5134378;27;19930;-85
2021/01/12 11:03:58;;;;;;;;;;;5.90;99.90;;;;;;5134314;27;19908;-85
2021/01/12 11:06:40;;;;;;;;;;;5.90;99.90;;;;;;5134972;27;19943;-86
2021/01/12 11:09:18;;;;;;;;;;;6.00;99.90;;;;;;5135517;27;19912;-85
2021/01/12 11:12:05;;;;;;;;;;;6.20;99.90;;;;;;5135741;27;19949;-85
2021/01/12 11:14:51;;;;;;;;;;;6.60;99.90;;;;;;5138048;27;19922;-86
2021/01/12 11:17:30;;;;;;;;;;;6.80;99.90;;;;;;5141727;27;19912;-86
2021/01/12 11:20:09;;;;;;;;;;;7.30;99.90;;;;;;5134696;27;19915;-87
2021/01/12 11:22:39;;;;;;;;;;;8.00;99.90;;;;;;5129857;27;19908;-87
2021/01/12 11:25:12;;;;;;;;;;;9.00;99.90;;;;;;5130438;27;19915;-84
2021/01/12 11:27:44;;;;;;;;;;;10.00;99.90;;;;;;5113317;28;19908;-86
2021/01/12 11:30:13;;;;;;;;;;;10.70;99.90;;;;;;5114924;28;19957;-86
2021/01/12 11:33:11;;;;;;;;;;;11.20;99.90;;;;;;5134908;27;20019;-85
2021/01/12 11:35:40;;;;;;;;;;;11.90;99.90;;;;;;5136926;27;20280;-86
2021/01/12 11:38:12;;;;;;;;;;;12.50;99.90;;;;;;5137254;27;19907;-86
2021/01/12 11:40:47;;;;;;;;;;;12.90;99.90;;;;;;5136934;27;19907;-85
2021/01/12 11:43:24;;;;;;;;;;;13.30;99.90;;;;;;5137007;27;20367;-86
2021/01/12 11:46:01;;;;;;;;;;;13.20;99.90;;;;;;5135379;27;20009;-86
2021/01/12 11:48:31;;;;;;;;;;;13.30;94.70;;;;;;5137055;27;19907;-86
2021/01/12 11:50:56;;;;;;;;;;;13.20;83.90;;;;;;5152607;27;19911;-87
2021/01/12 11:53:31;;;;;;;;;;;13.00;83.20;;;;;;5137115;27;19907;-86
2021/01/12 11:56:08;;;;;;;;;;;12.70;81.90;;;;;;5155154;27;20005;-85
2021/01/12 11:58:57;;;;;;;;;;;12.30;81.00;;;;;;5152754;27;19942;-85
2021/01/12 12:01:26;;;;;;;;;;;12.40;81.20;;;;;;5134801;27;19954;-85
2021/01/12 12:04:01;;;;;;;;;;;12.40;82.50;;;;;;5132930;27;19914;-86
2021/01/12 12:06:33;;;;;;;;;;;12.80;80.80;;;;;;5116662;28;19915;-85
2021/01/12 12:09:04;;;;;;;;;;;13.00;77.00;;;;;;5116082;28;20321;-86
2021/01/12 12:11:40;;;;;;;;;;;12.80;71.80;;;;;;5116530;28;19908;-86
2021/01/12 12:14:12;;;;;;;;;;;12.20;73.10;;;;;;5117312;28;19947;-86
2021/01/12 12:16:43;;;;;;;;;;;11.60;75.50;;;;;;5116522;28;20006;-86
2021/01/12 12:19:14;;;;;;;;;;;11.80;74.80;;;;;;5113633;28;19916;-85
2021/01/12 12:21:47;;;;;;;;;;;12.30;74.20;;;;;;5134862;28;19916;-86
2021/01/12 12:24:20;;;;;;;;;;;12.90;71.60;;;;;;5116148;28;19908;-86
2021/01/12 12:26:53;;;;;;;;;;;13.30;67.40;;;;;;5116492;28;20279;-88
2021/01/12 12:29:19;;;;;;;;;;;13.10;64.70;;;;;;5116081;28;20060;-86
2021/01/12 12:31:56;;;;;;;;;;;12.90;68.20;;;;;;5116155;28;20365;-86
2021/01/12 12:34:31;;;;;;;;;;;12.70;67.10;;;;;;5125894;28;20344;-85
2021/01/12 12:37:03;;;;;;;;;;;12.60;67.20;;;;;;5113805;28;20012;-86
2021/01/12 12:39:30;;;;;;;;;;;12.80;66.30;;;;;;5095416;28;19922;-86
2021/01/12 12:42:16;;;;;;;;;;;13.00;64.10;;;;;;5114065;28;19999;-85
2021/01/12 12:44:51;;;;;;;;;;;13.10;64.20;;;;;;5116099;28;19951;-83
2021/01/12 12:47:17;;;;;;;;;;;13.40;63.20;;;;;;5110801;27;19914;-85
2021/01/12 12:49:51;;;;;;;;;;;13.80;61.60;;;;;;5116701;28;20058;-85
2021/01/12 12:52:26;;;;;;;;;;;13.90;62.80;;;;;;5125437;27;19912;-87
2021/01/12 12:55:03;;;;;;;;;;;14.00;59.10;;;;;;5128204;27;19957;-85
2021/01/12 12:57:36;;;;;;;;;;;13.80;57.20;;;;;;5121343;27;19911;-84
2021/01/12 13:00:13;;;;;;;;;;;13.60;58.00;;;;;;5112582;28;19914;-84
2021/01/12 13:02:50;;;;;;;;;;;13.60;60.20;;;;;;5117397;27;19912;-85
2021/01/12 13:05:19;;;;;;;;;;;13.60;58.70;;;;;;5116316;27;20383;-84
2021/01/12 13:07:56;;;;;;;;;;;13.70;58.90;;;;;;5134740;27;19952;-84
2021/01/12 13:10:38;;;;;;;;;;;13.80;58.50;;;;;;5136490;27;19908;-85
2021/01/12 13:13:04;;;;;;;;;;;13.70;57.70;;;;;;5136337;27;19907;-84
2021/01/12 13:15:38;;;;;;;;;;;13.60;58.50;;;;;;5135854;27;19970;-84
2021/01/12 13:18:39;;;;;;;;;;;13.70;58.80;;;;;;5133335;27;19911;-86
2021/01/12 13:21:08;;;;;;;;;;;13.50;57.00;;;;;;5114568;27;19907;-85
2021/01/12 13:23:40;;;;;;;;;;;13.30;57.50;;;;;;5135652;27;19907;-84
2021/01/12 13:26:14;;;;;;;;;;;13.30;57.80;;;;;;5135766;27;19907;-85
2021/01/12 13:28:49;;;;;;;;;;;12.70;57.40;;;;;;5136118;27;19907;-85
2021/01/12 13:31:18;;;;;;;;;;;12.10;59.60;;;;;;5116993;27;19908;-85
2021/01/12 13:33:54;;;;;;;;;;;12.10;59.70;;;;;;5115425;28;19908;-85
2021/01/12 13:36:21;;;;;;;;;;;12.50;60.80;;;;;;5122590;27;19919;-84
2021/01/12 13:38:52;;;;;;;;;;;13.10;60.40;;;;;;5118381;27;20002;-85
2021/01/12 13:41:18;;;;;;;;;;;13.50;58.90;;;;;;5119038;27;19986;-85
2021/01/12 13:43:47;;;;;;;;;;;13.50;58.10;;;;;;5113906;27;19935;-87
2021/01/12 13:46:25;;;;;;;;;;;13.30;56.70;;;;;;5136849;27;20382;-84
2021/01/12 13:49:02;;;;;;;;;;;12.70;56.40;;;;;;5114645;27;19931;-84
2021/01/12 13:51:40;;;;;;;;;;;11.90;59.10;;;;;;5136607;27;19908;-85
2021/01/12 13:54:14;;;;;;;;;;;10.90;60.30;;;;;;5136882;27;19915;-85
2021/01/12 13:56:43;;;;;;;;;;;9.90;63.50;;;;;;5116189;27;19923;-85
2021/01/12 13:59:15;;;;;;;;;;;9.20;64.90;;;;;;5118515;27;19911;-85
2021/01/12 14:01:47;;;;;;;;;;;8.70;67.70;;;;;;5135994;27;19912;-85
2021/01/12 14:04:19;;;;;;;;;;;8.30;68.70;;;;;;5118279;27;19956;-85
2021/01/12 14:06:53;;;;;;;;;;;8.00;71.00;;;;;;5118773;27;19908;-84
2021/01/12 14:09:24;;;;;;;;;;;7.60;71.00;;;;;;5136787;27;20348;-84
2021/01/12 14:11:56;;;;;;;;;;;7.40;73.10;;;;;;5117592;27;19914;-84
2021/01/12 14:14:45;;;;;;;;;;;7.10;74.50;;;;;;5135127;27;19922;-86
2021/01/12 14:17:13;;;;;;;;;;;6.90;75.40;;;;;;5123295;27;20395;-84
2021/01/12 14:19:45;;;;;;;;;;;6.70;76.70;;;;;;5114077;27;19942;-84
2021/01/12 14:22:34;;;;;;;;;;;;;;;;;;;;;
2021/01/12 14:25:00;;;;;;;;;;;6.60;79.00;;;;;;5139696;27;19908;-85
2021/01/12 14:27:50;;;;;;;;;;;6.70;79.50;;;;;;5137390;27;19957;-85
2021/01/12 14:30:19;;;;;;;;;;;6.70;79.50;;;;;;5117930;27;19957;-85
2021/01/12 14:32:47;;;;;;;;;;;6.80;79.90;;;;;;5117439;27;19956;-84
2021/01/12 14:35:21;;;;;;;;;;;6.90;81.00;;;;;;5130125;27;19965;-84
2021/01/12 14:38:09;;;;;;;;;;;7.00;80.80;;;;;;5131146;27;19919;-86
2021/01/12 14:40:39;;;;;;;;;;;7.00;82.70;;;;;;5135639;27;19964;-85
2021/01/12 14:43:10;;;;;;;;;;;6.80;83.90;;;;;;5125649;27;20409;-85
2021/01/12 14:45:40;;;;;;;;;;;6.60;85.50;;;;;;5113389;28;20333;-84
2021/01/12 14:48:29;;;;;;;;;;;6.50;87.00;;;;;;5113987;28;19976;-85
2021/01/12 14:50:58;;;;;;;;;;;6.30;88.30;;;;;;5128408;27;20006;-85
2021/01/12 14:53:40;;;;;;;;;;;6.10;90.00;;;;;;5134707;27;19914;-85
2021/01/12 14:56:05;;;;;;;;;;;6.00;90.70;;;;;;5123950;27;19916;-85
2021/01/12 14:58:31;;;;;;;;;;;5.90;91.30;;;;;;5113985;28;19908;-85
2021/01/12 15:01:08;;;;;;;;;;;5.90;92.30;;;;;;5123072;27;19907;-86
2021/01/12 15:03:42;;;;;;;;;;;5.80;93.50;;;;;;5134390;27;19911;-86
2021/01/12 15:06:28;;;;;;;;;;;5.70;94.10;;;;;;5132720;27;20268;-86
2021/01/12 15:09:00;;;;;;;;;;;5.50;95.30;;;;;;5134441;27;19946;-86